x

South Huron - 43nm East Of Oscoda, Mi (45008) Wave Buoy

10:50am - Thu 25th May 2017 All times are CDT. -5 hours from GMT.

  • Sig Wave height 1.6ft
  • Swell Direction
  • Peak Period 4s
  • Average Period 4s
  • Wind
    13mph, 16mph gusts
  • Sea Temp 40°f
  • Air Temp 44°f
  • Sea Pressure 1000.7mb
  • South Huron - 43nm East Of Oscoda, Mi
  • South Huron - 43nm East Of Oscoda, Mi

More Historic Weather Station data

Upgrade to MSW Pro to gain access to the past 30 days of data for over 8000 Wavebouys and Weather Stations around the globe.

Join Pro

Comparision Forecast

View Surf forecast
   
Thu 05/25 10:50am 1.6ft 4s 4s 13 16 mph 1000.7mb 40f 44f
9:50am 1.6ft 4s 3s 13 16 mph 1001.1mb 40f 44f
8:50am 1.6ft 4s 3s 13 16 mph 1001.2mb 40f 44f
7:50am 1.6ft 4s 3s 13 16 mph 1001.2mb 40f 45f
6:50am 1.6ft 4s 3s 13 13 mph - 40f 44f
4:50am 2ft 4s 3s 16 18 mph 1001.6mb 40f 45f
3:50am 1.6ft 4s 3s 16 18 mph 1001.5mb 40f 45f
2:50am 1.3ft 3s 3s 13 16 mph 1001.8mb 40f 45f
1:50am 1.3ft 4s 3s 16 16 mph 1001.9mb 40f 46f
12:50am 1ft 4s 3s 16 18 mph - 40f 46f
Wed 05/24 10:50pm 1.3ft 4s 3s 9 9 mph 1003.5mb 40f 45f
9:50pm 1.6ft 4s 3s 11 11 mph 1004mb 40f 46f
8:50pm 1.6ft 4s 3s 11 13 mph 1003.8mb 40f 45f
7:50pm 1.6ft 4s 4s 13 16 mph 1003.6mb 40f 47f
6:50pm 2ft 4s 3s 13 16 mph - 40f 46f
4:50pm 2ft 4s 3s 13 16 mph 1003.6mb 40f 46f
3:50pm 1.6ft 4s 3s 11 11 mph 1004.1mb 40f 45f
2:50pm 1.6ft 4s 3s 16 18 mph 1003.9mb 40f 46f
1:50pm 1.6ft 4s 3s 11 13 mph 1004.4mb 40f 45f
12:50pm 1.3ft 3s 3s 16 18 mph - 40f 45f
10:50am 1ft 3s 3s 13 16 mph 1005.4mb 40f 44f
9:50am 0.7ft  -  2s 16 18 mph 1005.5mb 40f 44f
8:50am 0.3ft  -  2s 13 13 mph 1005.6mb 40f 45f
7:50am 0.3ft  -  2s 11 13 mph 1006mb 40f 44f
6:50am 0.3ft  -  3s 11 13 mph - 40f 44f
4:50am 0.3ft  -  2s 7 9 mph 1006.1mb 40f 43f
3:50am 0.3ft  -  2s 7 9 mph 1006.2mb 40f 44f
2:50am  -   -  2s 7 7 mph 1006.7mb 40f 44f
1:50am 0.3ft  -  4s 11 11 mph 1006.6mb 40f 45f
12:50am 0.3ft  -  3s 9 9 mph - 41f 45f
Tue 05/23 10:50pm 0.3ft  -  3s 7 7 mph 1008.6mb 41f 47f
9:50pm 0.3ft  -  3s 4 7 mph 1009.4mb 41f 49f
8:50pm 0.3ft  -  3s 4 7 mph 1008.9mb 41f 52f
7:50pm 0.3ft  -  3s 7 7 mph 1008.7mb 41f 44f
6:50pm 0.3ft  -  3s 7 7 mph - 41f 46f
4:50pm 0.3ft  -  3s 4 4 mph 1009.3mb 41f 48f
3:50pm 0.3ft  -  3s 4 4 mph 1009.3mb 41f 46f
2:50pm 0.3ft  -  3s 9 9 mph 1009.6mb 40f 44f
1:50pm 0.3ft  -  3s 7 7 mph 1010.4mb 40f 43f
12:50pm 0.3ft  -  3s 7 7 mph - 40f 43f
10:50am 0.3ft  -  3s 7 7 mph 1011.4mb 40f 45f
9:50am 0.3ft  -  3s 2 4 mph 1011.6mb 40f 46f
8:50am 0.3ft  -  3s 9 9 mph 1011.6mb 40f 47f
7:50am 0.3ft  -  3s 9 9 mph 1011.8mb 40f 46f
6:50am 0.3ft  -  3s 4 7 mph - 40f 44f
4:50am 0.7ft  -  3s 4 4 mph 1011.3mb 40f 46f
3:50am 0.7ft  -  3s 4 9 mph 1011.4mb 40f 44f
2:50am 0.7ft  -  3s 11 11 mph 1011.4mb 40f 46f
1:50am 0.7ft  -  3s 11 11 mph 1012mb 40f 46f
12:50am  -   -   -  4 7 mph - 40f 49f
Mon 05/22 10:50pm 0.7ft  -  3s 7 9 mph 1013.2mb 40f 47f
9:50pm 0.7ft  -  3s 9 11 mph 1013.5mb 40f 47f
8:50pm 0.7ft  -  3s 11 11 mph 1013.6mb 40f 44f
7:50pm 1ft 3s 3s 9 11 mph 1013.5mb 40f 45f
6:50pm 1.3ft 4s 3s 11 13 mph - 40f 45f
4:50pm 2ft 5s 4s 7 7 mph 1013mb 40f 49f
3:50pm 2.5ft 5s 4s 9 11 mph 1013.2mb 40f 47f
2:50pm 2.5ft 6s 4s 13 16 mph 1013.5mb 40f 48f
1:50pm 2.5ft 5s 4s 9 11 mph 1013.5mb 40f 46f
12:50pm 2.5ft 5s 4s 16 18 mph - 40f 46f
10:50am 2ft 5s 4s 11 13 mph 1013.5mb 40f 45f
9:50am 2ft 5s 4s 11 13 mph 1013.3mb 40f 44f
8:50am 2ft 5s 4s 11 13 mph 1013.2mb 40f 45f
7:50am 2ft 4s 4s 13 16 mph 1013.2mb 40f 45f
6:50am 1.6ft 4s 3s 11 13 mph - 40f 45f
4:50am 1.3ft 3s 3s 13 16 mph 1012.8mb 39f 46f
3:50am 1.3ft 4s 3s 11 13 mph 1012.5mb 39f 46f
2:50am 1.6ft 4s 3s 9 9 mph 1012.5mb 40f 45f
1:50am 1.3ft 4s 3s 11 13 mph 1012.4mb 40f 47f
12:50am 1.6ft 4s 3s 11 13 mph - 40f 49f
Sun 05/21 10:50pm 1.3ft 4s 3s 13 16 mph 1012.7mb 39f 48f
9:50pm 1.3ft 4s 3s 13 16 mph 1011.8mb 40f 49f
8:50pm 1.3ft 3s 3s 9 11 mph 1011.6mb 39f 47f
7:50pm 1.3ft 4s 3s 13 16 mph 1010.8mb 39f 49f
6:50pm 1.6ft 3s 3s 11 13 mph - 39f 47f